Aeroporto :
LOGIN :

Iscrizione | Disclaimer

   EN    FR    IT 

 










Sommario :    VFR   VFR Marginale   IFR   IFR Intensivo   IFR Molto Intensivo
Visibilità : 
Base nubi : 
>= 8 km
>= 3000ft
5 / 8 km
1000 / 3000 ft
1500m / 5 km
500 / 1000 ft
800 / 1500m
200 / 500 ft
< 800m
< 200 ft
Simboli :   Temporali  Nebbia  Neve Forte  Precipitazioni Forti  Vento > 20 kt
SIGMETs :   Varie  Temporali  Ghiacco  Turbolenza  Onda orograficha  Ceneri Vulcaniche






- Altitudine del aeroporto : 141 ft
- Codice IATA : SKS


EKSP - Srydstrup Vojens

ULTIMO METAR :
  • 210820Z 11001KT 5000 FEW039 BKN047 03/02 Q1015 BECMG 6000 NSW

METARs OBSOLETI :
  • 210811Z 10001KT 3000 MIFG FEW005 BKN023 03/02 Q1015 BECMG 6000 NSW
  • 210750Z 11003KT 2500 MIFG FEW005 BKN023 02/01 Q1015 BECMG 6000 NSW
  • 210747Z 11003KT 2000 MIFG FEW005 BKN023 01/01 Q1015 TEMPO 3000 BKN004
  • 210720Z 13002KT 5000 FEW005 BKN023 03/02 Q1015 TEMPO 3000 BKN004
  • 210704Z 14003KT 5000 SCT004 BKN024 03/03 Q1015 TEMPO 3000 BKN004
  • 210650Z 14004KT 3000 BR SCT004 BKN024 04/03 Q1015 TEMPO 2000 BKN003
  • 210620Z 14005KT 3000 BR SCT003 BKN005 04/03 Q1015 TEMPO 2000 BKN003
  • 210550Z 14003KT 3000 BR SCT003 BKN022 04/04 Q1015 TEMPO 2000 BKN003

TAF TAF EKSP
Valido dal 21 a 09 ore il 22 a 09 ore UTC


210821Z 2109/2209 10006KT 9000 BKN020
TEMPO 2109/2110 5000 BR
BECMG 2114/2116 08005KT 7000 -RA BKN012
BECMG 2116/2118 2500 -RADZ BR BKN004
TEMPO 2118/2209 1500 BKN003



MetMap, La meteo Aeronautica in un colpo d'occhio ! - Copyright ORBIFLY Dicembre 2007 - Disclaimer

ORBIFLY MET'MAP TEAM :

Programmazione e sviluppo : Alexandra Zaïnal
Concezione e sviluppo : Baudouin d'Aumeries
Co-Programmazione e sviluppo : Marc-Olivier Méhu
Supporto tecnico e logistico : Manuel Goepfert
Aiuto per la traduzione : Arnaldo La Scala

Contatto : metmap@orbifly.com




FONTI E CREDITI :

   NOAA